Terminal Aerodrome Forecast
Issued by NWS

Home | Current Version | Previous Version | Text Only | Print | Product List | Glossary On
Versions: 1 2 3 4 5 6 7 8 9 10 11 12 13 14 15 16 17
313
FTUS43 KMPX 292342
TAFAXN
TAF
KAXN 292342Z 3000/3024 13005KT P6SM SCT040
     FM300400 12004KT P6SM SKC
     FM300900 11004KT 4SM BR SKC
     FM301400 13007KT P6SM SKC
     FM302100 06009KT P6SM BKN040=

USA.gov is the U.S. government's official web portal to all federal, state and local government web resources and services.